Hlavní strana
METAR-TAF:

METAR-TAF

Letiště :

Letiště Plzeň Líně

Plzeň, Česká republika

zeměpisná šířka: 49-40-31N, zeměpisná délka: 13-16-29E, výška: 362 m

Aktuální stav počasí

Zpráva byla vytvořena před 1 hodinou a 3 minutami, v 00:00 UTC
Jihojihovýchodní vítr 4 kt, proměnlivý mezi východojihovýchodním a jižním
Teplota 10°C
Vlhkost vzduchu 87%
Tlak 1001 hPa
Viditelnost 10 km a více
Skoro jasno ve výšce 6400 ft
Polojasno ve výšce 8200 ft
Zataženo ve výšce 9300 ft

METAR: LKLN 270000Z AUTO 16004KT 120V190 9999 FEW064 SCT082 OVC093 10/08 Q1001

Čas: 03:03 (01:03 UTC)


TAF: chybějící

Stav a předpovědi počasí z více než 4 000 letišť (zprávy METAR a TAF).

Červené a žluté tečky na mapě představují dostupné meteorologické stanice.

Když kurzor umístíte na tečku, zobrazí se název stanice.

Pak kliknutím zobrazíte stav a předpověď počasí.

Chcete-li změnit mapu, kliknutím na zelené tlačítko se znaménkem +mapu přiblížíte, kliknutím na zelené tlačítko se znaménkem – mapu oddálíte a kliknutím na zelené šipky přejdete na sousední mapy.


METAR-TAF: